sensor_id;sensor_type;location;lat;lon;timestamp;P1;durP1;ratioP1;P2;durP2;ratioP2
6013;SDS011;3035;49.928;8.410;2024-02-16T00:01:48;10.90;;;4.90;;
6013;SDS011;3035;49.928;8.410;2024-02-16T00:04:15;11.60;;;4.80;;
6013;SDS011;3035;49.928;8.410;2024-02-16T00:06:42;8.20;;;4.37;;
6013;SDS011;3035;49.928;8.410;2024-02-16T00:09:10;9.70;;;4.80;;
6013;SDS011;3035;49.928;8.410;2024-02-16T00:11:37;7.40;;;4.80;;
6013;SDS011;3035;49.928;8.410;2024-02-16T00:14:05;8.60;;;4.97;;
6013;SDS011;3035;49.928;8.410;2024-02-16T00:16:32;8.13;;;4.10;;
6013;SDS011;3035;49.928;8.410;2024-02-16T00:19:00;7.67;;;4.13;;
6013;SDS011;3035;49.928;8.410;2024-02-16T00:21:27;6.23;;;4.40;;
6013;SDS011;3035;49.928;8.410;2024-02-16T00:23:55;5.40;;;3.77;;
6013;SDS011;3035;49.928;8.410;2024-02-16T00:26:22;8.00;;;3.97;;
6013;SDS011;3035;49.928;8.410;2024-02-16T00:28:49;6.20;;;4.20;;
6013;SDS011;3035;49.928;8.410;2024-02-16T00:31:17;10.17;;;4.00;;
6013;SDS011;3035;49.928;8.410;2024-02-16T00:33:44;5.00;;;3.73;;
6013;SDS011;3035;49.928;8.410;2024-02-16T00:36:12;5.40;;;4.30;;
6013;SDS011;3035;49.928;8.410;2024-02-16T00:38:39;6.60;;;3.80;;
6013;SDS011;3035;49.928;8.410;2024-02-16T00:41:07;5.40;;;3.93;;
6013;SDS011;3035;49.928;8.410;2024-02-16T00:43:34;5.93;;;3.60;;
6013;SDS011;3035;49.928;8.410;2024-02-16T00:46:01;8.43;;;4.70;;
6013;SDS011;3035;49.928;8.410;2024-02-16T00:48:29;5.83;;;3.80;;
6013;SDS011;3035;49.928;8.410;2024-02-16T00:50:56;9.73;;;4.07;;
6013;SDS011;3035;49.928;8.410;2024-02-16T00:53:24;5.67;;;3.63;;
6013;SDS011;3035;49.928;8.410;2024-02-16T00:55:51;6.43;;;4.00;;
6013;SDS011;3035;49.928;8.410;2024-02-16T00:58:19;6.23;;;3.80;;
6013;SDS011;3035;49.928;8.410;2024-02-16T01:00:47;7.03;;;4.20;;
6013;SDS011;3035;49.928;8.410;2024-02-16T01:03:13;9.00;;;3.63;;
6013;SDS011;3035;49.928;8.410;2024-02-16T01:05:41;5.80;;;4.10;;
6013;SDS011;3035;49.928;8.410;2024-02-16T01:08:08;5.10;;;4.10;;
6013;SDS011;3035;49.928;8.410;2024-02-16T01:10:36;7.17;;;3.97;;
6013;SDS011;3035;49.928;8.410;2024-02-16T01:13:03;8.37;;;3.73;;
6013;SDS011;3035;49.928;8.410;2024-02-16T01:15:31;6.83;;;4.30;;
6013;SDS011;3035;49.928;8.410;2024-02-16T01:17:58;5.50;;;4.07;;
6013;SDS011;3035;49.928;8.410;2024-02-16T01:20:26;8.47;;;4.80;;
6013;SDS011;3035;49.928;8.410;2024-02-16T01:22:53;15.50;;;4.07;;
6013;SDS011;3035;49.928;8.410;2024-02-16T01:25:20;4.57;;;3.80;;
6013;SDS011;3035;49.928;8.410;2024-02-16T01:27:48;5.60;;;4.23;;
6013;SDS011;3035;49.928;8.410;2024-02-16T01:30:15;9.07;;;4.33;;
6013;SDS011;3035;49.928;8.410;2024-02-16T01:32:43;6.53;;;4.10;;
6013;SDS011;3035;49.928;8.410;2024-02-16T01:35:10;5.03;;;3.83;;
6013;SDS011;3035;49.928;8.410;2024-02-16T01:37:38;8.60;;;5.00;;
6013;SDS011;3035;49.928;8.410;2024-02-16T01:40:05;9.13;;;4.20;;
6013;SDS011;3035;49.928;8.410;2024-02-16T01:42:33;7.60;;;4.30;;
6013;SDS011;3035;49.928;8.410;2024-02-16T01:45:01;9.60;;;5.20;;
6013;SDS011;3035;49.928;8.410;2024-02-16T01:47:28;8.40;;;4.23;;
6013;SDS011;3035;49.928;8.410;2024-02-16T01:49:56;12.03;;;4.07;;
6013;SDS011;3035;49.928;8.410;2024-02-16T01:52:23;6.07;;;3.37;;
6013;SDS011;3035;49.928;8.410;2024-02-16T01:54:50;4.27;;;3.73;;
6013;SDS011;3035;49.928;8.410;2024-02-16T01:57:18;4.90;;;4.10;;
6013;SDS011;3035;49.928;8.410;2024-02-16T01:59:45;9.47;;;4.50;;
6013;SDS011;3035;49.928;8.410;2024-02-16T02:02:13;8.00;;;3.83;;
6013;SDS011;3035;49.928;8.410;2024-02-16T02:04:40;6.20;;;3.60;;
6013;SDS011;3035;49.928;8.410;2024-02-16T02:07:11;5.33;;;3.60;;
6013;SDS011;3035;49.928;8.410;2024-02-16T02:09:38;5.43;;;3.80;;
6013;SDS011;3035;49.928;8.410;2024-02-16T02:12:05;5.70;;;3.80;;
6013;SDS011;3035;49.928;8.410;2024-02-16T02:14:33;5.17;;;3.90;;
6013;SDS011;3035;49.928;8.410;2024-02-16T02:17:00;11.30;;;3.83;;
6013;SDS011;3035;49.928;8.410;2024-02-16T02:19:28;8.53;;;4.13;;
6013;SDS011;3035;49.928;8.410;2024-02-16T02:21:55;5.83;;;4.27;;
6013;SDS011;3035;49.928;8.410;2024-02-16T02:24:23;9.03;;;3.90;;
6013;SDS011;3035;49.928;8.410;2024-02-16T02:26:50;11.43;;;3.90;;
6013;SDS011;3035;49.928;8.410;2024-02-16T02:29:18;5.20;;;3.70;;
6013;SDS011;3035;49.928;8.410;2024-02-16T02:31:45;11.50;;;4.00;;
6013;SDS011;3035;49.928;8.410;2024-02-16T02:34:12;10.93;;;4.47;;
6013;SDS011;3035;49.928;8.410;2024-02-16T02:36:40;7.10;;;4.43;;
6013;SDS011;3035;49.928;8.410;2024-02-16T02:39:07;6.50;;;4.10;;
6013;SDS011;3035;49.928;8.410;2024-02-16T02:41:35;6.60;;;3.90;;
6013;SDS011;3035;49.928;8.410;2024-02-16T02:44:02;4.23;;;3.70;;
6013;SDS011;3035;49.928;8.410;2024-02-16T02:46:30;7.67;;;3.83;;
6013;SDS011;3035;49.928;8.410;2024-02-16T02:48:57;7.73;;;4.30;;
6013;SDS011;3035;49.928;8.410;2024-02-16T02:51:24;4.20;;;3.83;;
6013;SDS011;3035;49.928;8.410;2024-02-16T02:53:52;5.93;;;3.97;;
6013;SDS011;3035;49.928;8.410;2024-02-16T02:56:19;6.83;;;4.30;;
6013;SDS011;3035;49.928;8.410;2024-02-16T02:58:47;4.97;;;3.60;;
6013;SDS011;3035;49.928;8.410;2024-02-16T03:01:14;4.10;;;3.57;;
6013;SDS011;3035;49.928;8.410;2024-02-16T03:03:42;7.80;;;3.93;;
6013;SDS011;3035;49.928;8.410;2024-02-16T03:06:09;9.03;;;4.03;;
6013;SDS011;3035;49.928;8.410;2024-02-16T03:08:36;7.33;;;4.03;;
6013;SDS011;3035;49.928;8.410;2024-02-16T03:11:04;6.93;;;3.70;;
6013;SDS011;3035;49.928;8.410;2024-02-16T03:13:31;7.50;;;4.00;;
6013;SDS011;3035;49.928;8.410;2024-02-16T03:15:59;7.30;;;4.80;;
6013;SDS011;3035;49.928;8.410;2024-02-16T03:18:29;7.40;;;4.17;;
6013;SDS011;3035;49.928;8.410;2024-02-16T03:20:56;7.17;;;4.10;;
6013;SDS011;3035;49.928;8.410;2024-02-16T03:23:23;8.90;;;5.00;;
6013;SDS011;3035;49.928;8.410;2024-02-16T03:25:50;10.20;;;5.37;;
6013;SDS011;3035;49.928;8.410;2024-02-16T03:28:18;7.47;;;4.73;;
6013;SDS011;3035;49.928;8.410;2024-02-16T03:30:46;7.70;;;4.70;;
6013;SDS011;3035;49.928;8.410;2024-02-16T03:33:13;8.27;;;4.93;;
6013;SDS011;3035;49.928;8.410;2024-02-16T03:35:40;6.03;;;4.70;;
6013;SDS011;3035;49.928;8.410;2024-02-16T03:38:08;14.97;;;4.80;;
6013;SDS011;3035;49.928;8.410;2024-02-16T03:40:35;10.60;;;5.20;;
6013;SDS011;3035;49.928;8.410;2024-02-16T03:43:03;32.83;;;5.57;;
6013;SDS011;3035;49.928;8.410;2024-02-16T03:45:30;6.10;;;5.03;;
6013;SDS011;3035;49.928;8.410;2024-02-16T03:47:57;9.20;;;5.57;;
6013;SDS011;3035;49.928;8.410;2024-02-16T03:50:25;8.30;;;5.10;;
6013;SDS011;3035;49.928;8.410;2024-02-16T03:52:52;9.17;;;5.40;;
6013;SDS011;3035;49.928;8.410;2024-02-16T03:55:20;14.10;;;5.37;;
6013;SDS011;3035;49.928;8.410;2024-02-16T03:57:47;13.83;;;5.10;;
6013;SDS011;3035;49.928;8.410;2024-02-16T04:00:15;9.77;;;5.70;;
6013;SDS011;3035;49.928;8.410;2024-02-16T04:02:42;13.53;;;5.10;;
6013;SDS011;3035;49.928;8.410;2024-02-16T04:05:10;11.27;;;5.63;;
6013;SDS011;3035;49.928;8.410;2024-02-16T04:07:37;11.20;;;5.40;;
6013;SDS011;3035;49.928;8.410;2024-02-16T04:10:05;7.87;;;5.13;;
6013;SDS011;3035;49.928;8.410;2024-02-16T04:12:32;11.43;;;5.60;;
6013;SDS011;3035;49.928;8.410;2024-02-16T04:14:59;7.47;;;4.93;;
6013;SDS011;3035;49.928;8.410;2024-02-16T04:17:27;10.27;;;4.50;;
6013;SDS011;3035;49.928;8.410;2024-02-16T04:19:54;9.97;;;5.80;;
6013;SDS011;3035;49.928;8.410;2024-02-16T04:22:22;13.43;;;5.70;;
6013;SDS011;3035;49.928;8.410;2024-02-16T04:24:49;7.80;;;5.03;;
6013;SDS011;3035;49.928;8.410;2024-02-16T04:27:17;10.50;;;5.73;;
6013;SDS011;3035;49.928;8.410;2024-02-16T04:29:44;14.00;;;5.00;;
6013;SDS011;3035;49.928;8.410;2024-02-16T04:32:12;14.37;;;7.23;;
6013;SDS011;3035;49.928;8.410;2024-02-16T04:34:39;10.87;;;5.47;;
6013;SDS011;3035;49.928;8.410;2024-02-16T04:37:06;13.10;;;5.80;;
6013;SDS011;3035;49.928;8.410;2024-02-16T04:39:34;5.57;;;4.60;;
6013;SDS011;3035;49.928;8.410;2024-02-16T04:42:01;12.20;;;6.43;;
6013;SDS011;3035;49.928;8.410;2024-02-16T04:44:29;14.10;;;5.83;;
6013;SDS011;3035;49.928;8.410;2024-02-16T04:46:56;11.93;;;6.00;;
6013;SDS011;3035;49.928;8.410;2024-02-16T04:49:24;8.87;;;5.13;;
6013;SDS011;3035;49.928;8.410;2024-02-16T04:51:51;10.10;;;5.80;;
6013;SDS011;3035;49.928;8.410;2024-02-16T04:54:19;12.60;;;5.73;;
6013;SDS011;3035;49.928;8.410;2024-02-16T04:56:46;10.40;;;6.03;;
6013;SDS011;3035;49.928;8.410;2024-02-16T04:59:15;12.20;;;6.63;;
6013;SDS011;3035;49.928;8.410;2024-02-16T05:01:44;10.77;;;5.43;;
6013;SDS011;3035;49.928;8.410;2024-02-16T05:04:12;12.57;;;5.70;;
6013;SDS011;3035;49.928;8.410;2024-02-16T05:06:40;6.40;;;5.50;;
6013;SDS011;3035;49.928;8.410;2024-02-16T05:09:07;12.40;;;5.67;;
6013;SDS011;3035;49.928;8.410;2024-02-16T05:11:35;7.97;;;6.60;;
6013;SDS011;3035;49.928;8.410;2024-02-16T05:14:02;9.50;;;6.10;;
6013;SDS011;3035;49.928;8.410;2024-02-16T05:16:29;10.13;;;6.20;;
6013;SDS011;3035;49.928;8.410;2024-02-16T05:18:57;12.53;;;7.00;;
6013;SDS011;3035;49.928;8.410;2024-02-16T05:21:24;9.30;;;6.00;;
6013;SDS011;3035;49.928;8.410;2024-02-16T05:23:52;19.30;;;6.50;;
6013;SDS011;3035;49.928;8.410;2024-02-16T05:26:19;19.40;;;7.03;;
6013;SDS011;3035;49.928;8.410;2024-02-16T05:28:47;18.03;;;7.47;;
6013;SDS011;3035;49.928;8.410;2024-02-16T05:31:16;8.07;;;5.90;;
6013;SDS011;3035;49.928;8.410;2024-02-16T05:33:44;8.30;;;6.13;;
6013;SDS011;3035;49.928;8.410;2024-02-16T05:36:11;12.90;;;6.10;;
6013;SDS011;3035;49.928;8.410;2024-02-16T05:38:38;9.07;;;6.53;;
6013;SDS011;3035;49.928;8.410;2024-02-16T05:41:08;6.63;;;5.93;;
6013;SDS011;3035;49.928;8.410;2024-02-16T05:43:35;8.60;;;6.30;;
6013;SDS011;3035;49.928;8.410;2024-02-16T05:46:03;10.50;;;6.47;;
6013;SDS011;3035;49.928;8.410;2024-02-16T05:48:30;17.07;;;6.97;;
6013;SDS011;3035;49.928;8.410;2024-02-16T05:50:59;12.80;;;6.83;;
6013;SDS011;3035;49.928;8.410;2024-02-16T05:53:25;15.10;;;6.23;;
6013;SDS011;3035;49.928;8.410;2024-02-16T05:55:53;12.83;;;6.63;;
6013;SDS011;3035;49.928;8.410;2024-02-16T05:58:20;10.40;;;6.23;;
6013;SDS011;3035;49.928;8.410;2024-02-16T06:00:47;9.37;;;6.53;;
6013;SDS011;3035;49.928;8.410;2024-02-16T06:03:15;10.47;;;7.40;;
6013;SDS011;3035;49.928;8.410;2024-02-16T06:05:42;9.33;;;7.03;;
6013;SDS011;3035;49.928;8.410;2024-02-16T06:08:11;14.80;;;6.67;;
6013;SDS011;3035;49.928;8.410;2024-02-16T06:10:38;9.67;;;6.43;;
6013;SDS011;3035;49.928;8.410;2024-02-16T06:13:05;13.90;;;6.73;;
6013;SDS011;3035;49.928;8.410;2024-02-16T06:15:33;13.37;;;7.43;;
6013;SDS011;3035;49.928;8.410;2024-02-16T06:18:01;10.10;;;5.90;;
6013;SDS011;3035;49.928;8.410;2024-02-16T06:20:28;14.10;;;6.47;;
6013;SDS011;3035;49.928;8.410;2024-02-16T06:22:55;18.77;;;6.93;;
6013;SDS011;3035;49.928;8.410;2024-02-16T06:25:22;10.93;;;6.40;;
6013;SDS011;3035;49.928;8.410;2024-02-16T06:27:50;10.10;;;6.47;;
6013;SDS011;3035;49.928;8.410;2024-02-16T06:30:17;9.57;;;6.37;;
6013;SDS011;3035;49.928;8.410;2024-02-16T06:32:45;11.80;;;6.20;;
6013;SDS011;3035;49.928;8.410;2024-02-16T06:35:12;8.70;;;5.77;;
6013;SDS011;3035;49.928;8.410;2024-02-16T06:37:40;8.93;;;5.93;;
6013;SDS011;3035;49.928;8.410;2024-02-16T06:40:07;15.93;;;6.40;;
6013;SDS011;3035;49.928;8.410;2024-02-16T06:42:37;8.57;;;6.20;;
6013;SDS011;3035;49.928;8.410;2024-02-16T06:45:04;11.17;;;6.00;;
6013;SDS011;3035;49.928;8.410;2024-02-16T06:47:32;10.73;;;6.80;;
6013;SDS011;3035;49.928;8.410;2024-02-16T06:49:59;9.47;;;6.77;;
6013;SDS011;3035;49.928;8.410;2024-02-16T06:52:27;7.97;;;5.70;;
6013;SDS011;3035;49.928;8.410;2024-02-16T06:54:54;10.47;;;6.13;;
6013;SDS011;3035;49.928;8.410;2024-02-16T06:57:22;13.70;;;6.37;;
6013;SDS011;3035;49.928;8.410;2024-02-16T06:59:49;8.93;;;6.33;;
6013;SDS011;3035;49.928;8.410;2024-02-16T07:02:16;9.00;;;6.03;;
6013;SDS011;3035;49.928;8.410;2024-02-16T07:04:44;7.80;;;6.37;;
6013;SDS011;3035;49.928;8.410;2024-02-16T07:07:12;9.17;;;6.50;;
6013;SDS011;3035;49.928;8.410;2024-02-16T07:09:39;7.10;;;5.93;;
6013;SDS011;3035;49.928;8.410;2024-02-16T07:12:07;9.03;;;6.47;;
6013;SDS011;3035;49.928;8.410;2024-02-16T07:14:34;9.00;;;6.23;;
6013;SDS011;3035;49.928;8.410;2024-02-16T07:17:02;12.30;;;6.00;;
6013;SDS011;3035;49.928;8.410;2024-02-16T07:19:29;9.57;;;6.00;;
6013;SDS011;3035;49.928;8.410;2024-02-16T07:21:56;13.70;;;6.03;;
6013;SDS011;3035;49.928;8.410;2024-02-16T07:24:24;9.10;;;6.80;;
6013;SDS011;3035;49.928;8.410;2024-02-16T07:26:51;9.10;;;6.40;;
6013;SDS011;3035;49.928;8.410;2024-02-16T07:29:19;13.40;;;6.60;;
6013;SDS011;3035;49.928;8.410;2024-02-16T07:31:46;13.20;;;7.13;;
6013;SDS011;3035;49.928;8.410;2024-02-16T07:34:14;15.03;;;6.63;;
6013;SDS011;3035;49.928;8.410;2024-02-16T07:36:41;9.73;;;6.20;;
6013;SDS011;3035;49.928;8.410;2024-02-16T07:39:09;9.93;;;6.57;;
6013;SDS011;3035;49.928;8.410;2024-02-16T07:41:36;13.73;;;6.27;;
6013;SDS011;3035;49.928;8.410;2024-02-16T07:44:04;14.50;;;5.93;;
6013;SDS011;3035;49.928;8.410;2024-02-16T07:46:31;9.20;;;5.90;;
6013;SDS011;3035;49.928;8.410;2024-02-16T07:48:58;9.83;;;5.50;;
6013;SDS011;3035;49.928;8.410;2024-02-16T07:51:26;8.93;;;5.83;;
6013;SDS011;3035;49.928;8.410;2024-02-16T07:53:53;8.87;;;5.17;;
6013;SDS011;3035;49.928;8.410;2024-02-16T07:56:21;8.90;;;5.97;;
6013;SDS011;3035;49.928;8.410;2024-02-16T07:58:48;9.03;;;6.53;;
6013;SDS011;3035;49.928;8.410;2024-02-16T08:01:16;7.83;;;5.60;;
6013;SDS011;3035;49.928;8.410;2024-02-16T08:03:43;9.60;;;5.80;;
6013;SDS011;3035;49.928;8.410;2024-02-16T08:06:10;6.40;;;5.10;;
6013;SDS011;3035;49.928;8.410;2024-02-16T08:08:38;10.90;;;5.93;;
6013;SDS011;3035;49.928;8.410;2024-02-16T08:11:05;10.43;;;6.27;;
6013;SDS011;3035;49.928;8.410;2024-02-16T08:13:33;10.73;;;6.20;;
6013;SDS011;3035;49.928;8.410;2024-02-16T08:16:00;14.93;;;5.87;;
6013;SDS011;3035;49.928;8.410;2024-02-16T08:18:28;9.13;;;6.03;;
6013;SDS011;3035;49.928;8.410;2024-02-16T08:20:55;11.90;;;6.23;;
6013;SDS011;3035;49.928;8.410;2024-02-16T08:23:22;10.60;;;5.97;;
6013;SDS011;3035;49.928;8.410;2024-02-16T08:25:50;11.90;;;6.73;;
6013;SDS011;3035;49.928;8.410;2024-02-16T08:28:17;12.20;;;6.37;;
6013;SDS011;3035;49.928;8.410;2024-02-16T08:30:45;10.07;;;5.87;;
6013;SDS011;3035;49.928;8.410;2024-02-16T08:33:12;8.83;;;5.63;;
6013;SDS011;3035;49.928;8.410;2024-02-16T08:35:40;15.23;;;6.20;;
6013;SDS011;3035;49.928;8.410;2024-02-16T08:38:07;14.77;;;5.87;;
6013;SDS011;3035;49.928;8.410;2024-02-16T08:40:36;8.33;;;6.10;;
6013;SDS011;3035;49.928;8.410;2024-02-16T08:43:03;9.93;;;5.60;;
6013;SDS011;3035;49.928;8.410;2024-02-16T08:45:31;11.27;;;5.87;;
6013;SDS011;3035;49.928;8.410;2024-02-16T08:47:59;15.90;;;6.43;;
6013;SDS011;3035;49.928;8.410;2024-02-16T08:50:26;9.57;;;6.30;;
6013;SDS011;3035;49.928;8.410;2024-02-16T08:52:53;10.87;;;6.50;;
6013;SDS011;3035;49.928;8.410;2024-02-16T08:55:21;10.90;;;7.07;;
6013;SDS011;3035;49.928;8.410;2024-02-16T08:57:48;19.53;;;6.80;;
6013;SDS011;3035;49.928;8.410;2024-02-16T09:00:16;19.60;;;6.10;;
6013;SDS011;3035;49.928;8.410;2024-02-16T09:02:43;11.00;;;5.90;;
6013;SDS011;3035;49.928;8.410;2024-02-16T09:05:11;7.97;;;5.63;;
6013;SDS011;3035;49.928;8.410;2024-02-16T09:07:38;11.07;;;6.80;;
6013;SDS011;3035;49.928;8.410;2024-02-16T09:10:06;8.90;;;6.40;;
6013;SDS011;3035;49.928;8.410;2024-02-16T09:12:34;9.93;;;6.30;;
6013;SDS011;3035;49.928;8.410;2024-02-16T09:15:01;13.30;;;6.20;;
6013;SDS011;3035;49.928;8.410;2024-02-16T09:17:28;14.30;;;6.93;;
6013;SDS011;3035;49.928;8.410;2024-02-16T09:19:56;8.37;;;6.30;;
6013;SDS011;3035;49.928;8.410;2024-02-16T09:22:23;7.60;;;5.60;;
6013;SDS011;3035;49.928;8.410;2024-02-16T09:24:51;9.47;;;6.63;;
6013;SDS011;3035;49.928;8.410;2024-02-16T09:27:18;12.50;;;6.90;;
6013;SDS011;3035;49.928;8.410;2024-02-16T09:29:46;12.43;;;6.60;;
6013;SDS011;3035;49.928;8.410;2024-02-16T09:32:13;11.30;;;5.87;;
6013;SDS011;3035;49.928;8.410;2024-02-16T09:34:40;12.63;;;6.23;;
6013;SDS011;3035;49.928;8.410;2024-02-16T09:37:08;15.23;;;7.00;;
6013;SDS011;3035;49.928;8.410;2024-02-16T09:39:35;11.97;;;7.17;;
6013;SDS011;3035;49.928;8.410;2024-02-16T09:42:03;17.00;;;7.83;;
6013;SDS011;3035;49.928;8.410;2024-02-16T09:44:30;11.40;;;6.67;;
6013;SDS011;3035;49.928;8.410;2024-02-16T09:46:58;10.77;;;6.30;;
6013;SDS011;3035;49.928;8.410;2024-02-16T09:49:25;10.27;;;6.07;;
6013;SDS011;3035;49.928;8.410;2024-02-16T09:51:53;11.43;;;6.30;;
6013;SDS011;3035;49.928;8.410;2024-02-16T09:54:20;13.23;;;6.90;;
6013;SDS011;3035;49.928;8.410;2024-02-16T09:56:47;11.27;;;7.47;;
6013;SDS011;3035;49.928;8.410;2024-02-16T09:59:15;12.23;;;7.10;;
6013;SDS011;3035;49.928;8.410;2024-02-16T10:01:42;13.73;;;6.80;;
6013;SDS011;3035;49.928;8.410;2024-02-16T10:04:10;11.87;;;6.97;;
6013;SDS011;3035;49.928;8.410;2024-02-16T10:09:21;10.07;;;6.53;;
6013;SDS011;3035;49.928;8.410;2024-02-16T10:11:40;9.30;;;5.63;;
6013;SDS011;3035;49.928;8.410;2024-02-16T10:14:07;8.77;;;5.77;;
6013;SDS011;3035;49.928;8.410;2024-02-16T10:16:35;11.67;;;6.40;;
6013;SDS011;3035;49.928;8.410;2024-02-16T10:19:06;7.50;;;5.90;;
6013;SDS011;3035;49.928;8.410;2024-02-16T10:21:33;14.00;;;6.20;;
6013;SDS011;3035;49.928;8.410;2024-02-16T10:24:01;22.30;;;7.10;;
6013;SDS011;3035;49.928;8.410;2024-02-16T10:26:28;8.83;;;5.40;;
6013;SDS011;3035;49.928;8.410;2024-02-16T10:28:55;10.93;;;6.70;;
6013;SDS011;3035;49.928;8.410;2024-02-16T10:31:24;10.23;;;5.50;;
6013;SDS011;3035;49.928;8.410;2024-02-16T10:33:58;12.17;;;6.30;;
6013;SDS011;3035;49.928;8.410;2024-02-16T10:36:25;12.23;;;6.03;;
6013;SDS011;3035;49.928;8.410;2024-02-16T10:38:52;8.97;;;6.00;;
6013;SDS011;3035;49.928;8.410;2024-02-16T10:41:20;9.87;;;6.70;;
6013;SDS011;3035;49.928;8.410;2024-02-16T10:43:47;7.97;;;5.90;;
6013;SDS011;3035;49.928;8.410;2024-02-16T10:46:15;10.83;;;6.20;;
6013;SDS011;3035;49.928;8.410;2024-02-16T10:48:42;11.33;;;5.87;;
6013;SDS011;3035;49.928;8.410;2024-02-16T10:51:09;10.17;;;5.97;;
6013;SDS011;3035;49.928;8.410;2024-02-16T10:53:37;11.47;;;5.57;;
6013;SDS011;3035;49.928;8.410;2024-02-16T10:56:06;9.57;;;6.00;;
6013;SDS011;3035;49.928;8.410;2024-02-16T10:58:32;9.80;;;6.13;;
6013;SDS011;3035;49.928;8.410;2024-02-16T11:01:07;9.90;;;5.67;;
6013;SDS011;3035;49.928;8.410;2024-02-16T11:03:27;6.80;;;5.70;;
6013;SDS011;3035;49.928;8.410;2024-02-16T11:05:55;13.20;;;5.80;;
6013;SDS011;3035;49.928;8.410;2024-02-16T11:08:23;10.97;;;6.30;;
6013;SDS011;3035;49.928;8.410;2024-02-16T11:10:54;9.53;;;5.83;;
6013;SDS011;3035;49.928;8.410;2024-02-16T11:13:22;11.97;;;6.27;;
6013;SDS011;3035;49.928;8.410;2024-02-16T11:15:55;9.40;;;6.30;;
6013;SDS011;3035;49.928;8.410;2024-02-16T11:18:16;12.37;;;5.70;;
6013;SDS011;3035;49.928;8.410;2024-02-16T11:20:44;9.10;;;5.50;;
6013;SDS011;3035;49.928;8.410;2024-02-16T11:23:11;24.27;;;6.33;;
6013;SDS011;3035;49.928;8.410;2024-02-16T11:25:39;10.60;;;6.47;;
6013;SDS011;3035;49.928;8.410;2024-02-16T11:28:07;7.30;;;5.10;;
6013;SDS011;3035;49.928;8.410;2024-02-16T11:30:35;8.10;;;5.50;;
6013;SDS011;3035;49.928;8.410;2024-02-16T11:33:04;8.43;;;4.90;;
6013;SDS011;3035;49.928;8.410;2024-02-16T11:35:32;7.70;;;4.87;;
6013;SDS011;3035;49.928;8.410;2024-02-16T11:38:00;5.97;;;4.63;;
6013;SDS011;3035;49.928;8.410;2024-02-16T11:40:28;7.97;;;4.03;;
6013;SDS011;3035;49.928;8.410;2024-02-16T11:42:58;8.77;;;4.40;;
6013;SDS011;3035;49.928;8.410;2024-02-16T11:45:24;11.33;;;3.63;;
6013;SDS011;3035;49.928;8.410;2024-02-16T11:50:32;11.03;;;3.63;;
6013;SDS011;3035;49.928;8.410;2024-02-16T11:53:00;6.50;;;3.60;;
6013;SDS011;3035;49.928;8.410;2024-02-16T11:55:28;8.90;;;4.53;;
6013;SDS011;3035;49.928;8.410;2024-02-16T11:57:56;4.73;;;3.53;;
6013;SDS011;3035;49.928;8.410;2024-02-16T12:00:24;6.63;;;4.03;;
6013;SDS011;3035;49.928;8.410;2024-02-16T12:05:27;6.13;;;2.83;;
6013;SDS011;3035;49.928;8.410;2024-02-16T12:07:57;7.47;;;3.50;;
6013;SDS011;3035;49.928;8.410;2024-02-16T12:10:24;5.90;;;2.90;;
6013;SDS011;3035;49.928;8.410;2024-02-16T12:12:52;3.23;;;2.63;;
6013;SDS011;3035;49.928;8.410;2024-02-16T12:15:21;11.50;;;3.20;;
6013;SDS011;3035;49.928;8.410;2024-02-16T12:17:57;5.23;;;2.93;;
6013;SDS011;3035;49.928;8.410;2024-02-16T12:20:15;5.40;;;3.17;;
6013;SDS011;3035;49.928;8.410;2024-02-16T12:22:43;4.77;;;2.40;;
6013;SDS011;3035;49.928;8.410;2024-02-16T12:25:11;8.13;;;2.90;;
6013;SDS011;3035;49.928;8.410;2024-02-16T12:27:39;4.20;;;2.70;;
6013;SDS011;3035;49.928;8.410;2024-02-16T12:30:07;4.97;;;3.03;;
6013;SDS011;3035;49.928;8.410;2024-02-16T12:32:35;7.80;;;3.20;;
6013;SDS011;3035;49.928;8.410;2024-02-16T12:35:03;7.33;;;3.03;;
6013;SDS011;3035;49.928;8.410;2024-02-16T12:37:31;9.60;;;2.83;;
6013;SDS011;3035;49.928;8.410;2024-02-16T12:39:58;4.17;;;2.70;;
6013;SDS011;3035;49.928;8.410;2024-02-16T12:42:26;5.97;;;2.47;;
6013;SDS011;3035;49.928;8.410;2024-02-16T12:44:53;7.57;;;2.67;;
6013;SDS011;3035;49.928;8.410;2024-02-16T12:47:21;5.23;;;2.20;;
6013;SDS011;3035;49.928;8.410;2024-02-16T12:49:48;3.60;;;2.40;;
6013;SDS011;3035;49.928;8.410;2024-02-16T12:52:19;5.80;;;2.60;;
6013;SDS011;3035;49.928;8.410;2024-02-16T12:54:43;5.70;;;2.23;;
6013;SDS011;3035;49.928;8.410;2024-02-16T12:57:12;3.43;;;2.20;;
6013;SDS011;3035;49.928;8.410;2024-02-16T12:59:38;6.20;;;2.27;;
6013;SDS011;3035;49.928;8.410;2024-02-16T13:02:05;4.00;;;2.10;;
6013;SDS011;3035;49.928;8.410;2024-02-16T13:04:33;7.10;;;2.60;;
6013;SDS011;3035;49.928;8.410;2024-02-16T13:07:00;5.87;;;2.70;;
6013;SDS011;3035;49.928;8.410;2024-02-16T13:09:28;7.37;;;2.40;;
6013;SDS011;3035;49.928;8.410;2024-02-16T13:11:55;6.93;;;2.67;;
6013;SDS011;3035;49.928;8.410;2024-02-16T13:14:23;3.53;;;2.37;;
6013;SDS011;3035;49.928;8.410;2024-02-16T13:16:51;5.57;;;2.70;;
6013;SDS011;3035;49.928;8.410;2024-02-16T13:19:18;4.33;;;2.00;;
6013;SDS011;3035;49.928;8.410;2024-02-16T13:21:47;4.40;;;1.70;;
6013;SDS011;3035;49.928;8.410;2024-02-16T13:24:14;6.77;;;2.20;;
6013;SDS011;3035;49.928;8.410;2024-02-16T13:26:42;6.57;;;2.80;;
6013;SDS011;3035;49.928;8.410;2024-02-16T13:29:10;8.87;;;2.30;;
6013;SDS011;3035;49.928;8.410;2024-02-16T13:31:38;3.60;;;2.60;;
6013;SDS011;3035;49.928;8.410;2024-02-16T13:34:06;3.80;;;2.23;;
6013;SDS011;3035;49.928;8.410;2024-02-16T13:36:34;4.47;;;2.37;;
6013;SDS011;3035;49.928;8.410;2024-02-16T13:39:02;3.60;;;2.00;;
6013;SDS011;3035;49.928;8.410;2024-02-16T13:41:30;7.97;;;2.50;;
6013;SDS011;3035;49.928;8.410;2024-02-16T13:43:59;3.43;;;1.73;;
6013;SDS011;3035;49.928;8.410;2024-02-16T13:46:26;8.33;;;2.37;;
6013;SDS011;3035;49.928;8.410;2024-02-16T13:48:54;4.90;;;2.43;;
6013;SDS011;3035;49.928;8.410;2024-02-16T13:51:23;5.87;;;2.40;;
6013;SDS011;3035;49.928;8.410;2024-02-16T13:53:51;4.60;;;2.03;;
6013;SDS011;3035;49.928;8.410;2024-02-16T13:56:19;5.93;;;2.47;;
6013;SDS011;3035;49.928;8.410;2024-02-16T13:58:46;5.93;;;2.50;;
6013;SDS011;3035;49.928;8.410;2024-02-16T14:01:15;4.70;;;2.60;;
6013;SDS011;3035;49.928;8.410;2024-02-16T14:03:42;10.07;;;2.40;;
6013;SDS011;3035;49.928;8.410;2024-02-16T14:06:09;4.20;;;2.20;;
6013;SDS011;3035;49.928;8.410;2024-02-16T14:08:37;6.47;;;2.77;;
6013;SDS011;3035;49.928;8.410;2024-02-16T14:11:05;4.97;;;2.53;;
6013;SDS011;3035;49.928;8.410;2024-02-16T14:13:34;5.23;;;2.00;;
6013;SDS011;3035;49.928;8.410;2024-02-16T14:16:02;6.77;;;2.30;;
6013;SDS011;3035;49.928;8.410;2024-02-16T14:18:30;5.47;;;2.90;;
6013;SDS011;3035;49.928;8.410;2024-02-16T14:20:58;6.83;;;2.20;;
6013;SDS011;3035;49.928;8.410;2024-02-16T14:23:26;7.70;;;2.83;;
6013;SDS011;3035;49.928;8.410;2024-02-16T14:25:54;5.73;;;2.80;;
6013;SDS011;3035;49.928;8.410;2024-02-16T14:28:22;8.70;;;2.30;;
6013;SDS011;3035;49.928;8.410;2024-02-16T14:30:50;3.17;;;2.27;;
6013;SDS011;3035;49.928;8.410;2024-02-16T14:33:18;2.77;;;1.93;;
6013;SDS011;3035;49.928;8.410;2024-02-16T14:35:46;3.13;;;2.20;;
6013;SDS011;3035;49.928;8.410;2024-02-16T14:38:14;7.60;;;2.60;;
6013;SDS011;3035;49.928;8.410;2024-02-16T14:40:42;4.80;;;2.37;;
6013;SDS011;3035;49.928;8.410;2024-02-16T14:43:10;4.03;;;2.10;;
6013;SDS011;3035;49.928;8.410;2024-02-16T14:45:39;3.67;;;2.37;;
6013;SDS011;3035;49.928;8.410;2024-02-16T14:48:07;5.23;;;2.10;;
6013;SDS011;3035;49.928;8.410;2024-02-16T14:50:35;5.00;;;2.70;;
6013;SDS011;3035;49.928;8.410;2024-02-16T14:53:03;6.43;;;2.77;;
6013;SDS011;3035;49.928;8.410;2024-02-16T14:55:30;3.10;;;2.23;;
6013;SDS011;3035;49.928;8.410;2024-02-16T14:57:59;2.40;;;2.00;;
6013;SDS011;3035;49.928;8.410;2024-02-16T15:00:27;4.97;;;2.13;;
6013;SDS011;3035;49.928;8.410;2024-02-16T15:02:55;12.77;;;2.50;;
6013;SDS011;3035;49.928;8.410;2024-02-16T15:05:24;6.67;;;2.43;;
6013;SDS011;3035;49.928;8.410;2024-02-16T15:07:52;10.57;;;3.00;;
6013;SDS011;3035;49.928;8.410;2024-02-16T15:10:19;13.83;;;3.60;;
6013;SDS011;3035;49.928;8.410;2024-02-16T15:12:48;6.60;;;2.87;;
6013;SDS011;3035;49.928;8.410;2024-02-16T15:15:16;4.63;;;3.03;;
6013;SDS011;3035;49.928;8.410;2024-02-16T15:17:44;13.43;;;3.17;;
6013;SDS011;3035;49.928;8.410;2024-02-16T15:20:12;4.70;;;3.43;;